createdAt,value
2022-10-18T00:01:29.313Z,99.99
2022-10-18T00:04:00.505Z,99.56
2022-10-18T00:06:31.031Z,99.99
2022-10-18T00:09:01.440Z,99.99
2022-10-18T00:11:31.349Z,99.99
2022-10-18T00:14:01.181Z,99.99
2022-10-18T00:16:31.027Z,99.99
2022-10-18T00:19:00.926Z,99.99
2022-10-18T00:21:31.285Z,99.99
2022-10-18T00:24:01.725Z,99.99
2022-10-18T00:26:32.650Z,99.99
2022-10-18T00:29:06.001Z,99.99
2022-10-18T00:31:38.870Z,99.99
2022-10-18T00:34:14.923Z,99.99
2022-10-18T00:36:46.358Z,99.99
2022-10-18T00:39:21.227Z,99.99
2022-10-18T00:41:52.305Z,99.99
2022-10-18T00:44:29.913Z,99.99
2022-10-18T00:47:10.941Z,99.99
2022-10-18T00:49:47.141Z,99.99
2022-10-18T00:52:43.606Z,99.99
2022-10-18T00:55:15.011Z,99.99
2022-10-18T00:57:46.645Z,99.99
2022-10-18T01:00:17.211Z,99.99
2022-10-18T01:02:49.299Z,99.99
2022-10-18T01:05:21.545Z,99.99
2022-10-18T01:07:57.507Z,99.99
2022-10-18T01:10:36.923Z,99.99
2022-10-18T01:13:12.771Z,99.99
2022-10-18T01:15:52.616Z,99.99
2022-10-18T01:18:46.554Z,99.99
2022-10-18T01:21:36.884Z,99.99
2022-10-18T01:24:37.589Z,99.99
2022-10-18T01:27:35.431Z,99.99
2022-10-18T01:30:22.791Z,99.99
2022-10-18T01:33:02.148Z,99.99
2022-10-18T01:35:39.505Z,99.99
2022-10-18T01:38:15.316Z,99.99
2022-10-18T01:40:48.040Z,99.99
2022-10-18T01:43:20.059Z,99.99
2022-10-18T01:45:51.291Z,99.99
2022-10-18T01:48:22.957Z,99.99
2022-10-18T01:50:55.385Z,99.99
2022-10-18T01:53:36.197Z,99.99
2022-10-18T01:56:24.744Z,99.99
2022-10-18T01:59:03.848Z,99.99
2022-10-18T02:01:48.211Z,99.99
2022-10-18T02:04:25.371Z,99.99
2022-10-18T02:07:06.140Z,99.99
2022-10-18T02:09:47.884Z,99.99
2022-10-18T02:12:20.020Z,99.99
2022-10-18T02:14:52.080Z,99.99
2022-10-18T02:17:23.456Z,99.99
2022-10-18T02:19:56.645Z,99.99
2022-10-18T02:22:29.883Z,99.99
2022-10-18T02:25:04.272Z,99.99
2022-10-18T02:27:34.759Z,99.99
2022-10-18T02:30:05.313Z,99.99
2022-10-18T02:32:52.018Z,99.99
2022-10-18T02:35:24.990Z,99.99
2022-10-18T02:37:56.981Z,99.99
2022-10-18T02:40:28.150Z,99.99
2022-10-18T02:43:00.202Z,99.99
2022-10-18T02:45:30.511Z,99.99
2022-10-18T02:48:00.822Z,99.99
2022-10-18T02:50:30.649Z,99.99
2022-10-18T02:53:01.326Z,99.99
2022-10-18T02:55:31.341Z,99.99
2022-10-18T02:58:01.151Z,99.99
2022-10-18T03:00:30.934Z,99.99
2022-10-18T03:03:00.722Z,99.99
2022-10-18T03:05:30.482Z,99.99
2022-10-18T03:08:01.168Z,99.99
2022-10-18T03:10:31.191Z,99.99
2022-10-18T03:13:01.120Z,99.99
2022-10-18T03:15:31.312Z,99.99
2022-10-18T03:18:01.054Z,99.99
2022-10-18T03:20:31.240Z,99.99
2022-10-18T03:23:01.049Z,99.99
2022-10-18T03:25:30.863Z,99.99
2022-10-18T03:28:00.808Z,99.99
2022-10-18T03:30:30.643Z,99.99
2022-10-18T03:33:00.466Z,99.99
2022-10-18T03:35:30.284Z,99.99
2022-10-18T03:38:00.526Z,99.99
2022-10-18T03:43:01.939Z,99.99
2022-10-18T03:45:32.273Z,99.99
2022-10-18T03:48:02.042Z,99.99
2022-10-18T03:50:31.817Z,99.99
2022-10-18T03:53:02.062Z,99.99
2022-10-18T03:55:31.867Z,99.99
2022-10-18T03:58:02.057Z,99.99
2022-10-18T04:00:31.945Z,99.99
2022-10-18T04:03:01.758Z,99.99
2022-10-18T04:05:32.533Z,99.99
2022-10-18T04:08:02.468Z,99.99
2022-10-18T04:10:32.560Z,99.99
2022-10-18T04:13:02.314Z,99.99
2022-10-18T04:15:32.631Z,99.99
2022-10-18T04:18:03.110Z,99.99
2022-10-18T04:20:34.611Z,99.99
2022-10-18T04:23:04.561Z,99.99
2022-10-18T04:25:34.477Z,99.99
2022-10-18T04:28:05.839Z,99.99
2022-10-18T04:30:36.157Z,99.99
2022-10-18T04:33:05.958Z,99.99
2022-10-18T04:35:35.765Z,99.99
2022-10-18T04:38:05.506Z,99.99
2022-10-18T04:40:35.500Z,99.99
2022-10-18T04:43:05.275Z,99.99
2022-10-18T04:45:35.461Z,99.99
2022-10-18T04:48:05.418Z,99.99
2022-10-18T04:50:35.232Z,99.99
2022-10-18T04:53:17.221Z,99.99
2022-10-18T04:55:51.771Z,99.99
2022-10-18T04:58:22.153Z,99.99
2022-10-18T05:00:52.106Z,99.99
2022-10-18T05:03:21.867Z,99.99
2022-10-18T05:06:07.011Z,99.99
2022-10-18T05:08:37.839Z,99.99
2022-10-18T05:13:39.406Z,99.99
2022-10-18T05:16:09.614Z,99.99
2022-10-18T05:18:39.988Z,99.99
2022-10-18T05:21:10.599Z,99.99
2022-10-18T05:23:40.956Z,99.99
2022-10-18T05:26:11.209Z,99.99
2022-10-18T05:28:42.429Z,99.99
2022-10-18T05:31:13.070Z,99.99
2022-10-18T05:33:43.090Z,99.99
2022-10-18T05:36:13.022Z,99.99
2022-10-18T05:38:43.840Z,99.99
2022-10-18T05:41:15.109Z,99.99
2022-10-18T05:43:45.756Z,99.99
2022-10-18T05:46:15.955Z,99.99
2022-10-18T05:48:50.835Z,99.99
2022-10-18T05:51:21.168Z,99.99
2022-10-18T05:53:51.342Z,99.99
2022-10-18T05:56:21.528Z,99.99
2022-10-18T05:58:54.288Z,99.99
2022-10-18T06:01:24.696Z,99.99
2022-10-18T06:03:54.523Z,99.99
2022-10-18T06:06:24.724Z,99.99
2022-10-18T06:08:54.584Z,99.99
2022-10-18T06:11:25.052Z,99.99
2022-10-18T06:13:55.071Z,99.99
2022-10-18T06:16:29.837Z,99.99
2022-10-18T06:19:02.183Z,99.99
2022-10-18T06:21:32.520Z,99.99
2022-10-18T06:24:02.382Z,99.99
2022-10-18T06:26:32.179Z,99.99
2022-10-18T06:29:02.176Z,99.99
2022-10-18T06:31:32.478Z,99.99
2022-10-18T06:34:03.742Z,99.99
2022-10-18T06:36:33.976Z,99.99
2022-10-18T06:39:03.838Z,99.99
2022-10-18T06:41:33.595Z,99.99
2022-10-18T06:44:25.547Z,99.99
2022-10-18T06:46:55.945Z,99.99
2022-10-18T06:49:26.306Z,99.99
2022-10-18T06:51:56.411Z,99.99
2022-10-18T06:54:26.183Z,99.99
2022-10-18T06:56:59.191Z,99.99
2022-10-18T06:59:31.329Z,99.99
2022-10-18T07:02:02.258Z,99.99
2022-10-18T07:04:32.209Z,99.99
2022-10-18T07:07:01.961Z,99.99
2022-10-18T07:09:31.856Z,99.99
2022-10-18T07:12:02.077Z,99.99
2022-10-18T07:14:31.815Z,99.99
2022-10-18T07:17:02.141Z,99.99
2022-10-18T07:19:32.864Z,99.99
2022-10-18T07:22:03.499Z,99.99
2022-10-18T07:27:08.350Z,99.99
2022-10-18T07:29:42.031Z,99.99
2022-10-18T07:32:12.402Z,99.99
2022-10-18T07:34:42.165Z,99.99
2022-10-18T07:37:11.933Z,99.99
2022-10-18T07:39:41.719Z,99.99
2022-10-18T07:42:11.868Z,99.99
2022-10-18T07:44:41.854Z,99.99
2022-10-18T07:47:12.087Z,99.99
2022-10-18T07:49:42.140Z,99.99
2022-10-18T07:52:12.332Z,99.99
2022-10-18T07:54:42.092Z,99.99
2022-10-18T07:57:11.868Z,99.99
2022-10-18T07:59:41.683Z,99.99
2022-10-18T08:02:11.865Z,99.99
2022-10-18T08:04:42.865Z,99.99
2022-10-18T08:07:13.253Z,99.99
2022-10-18T08:09:43.070Z,99.99
2022-10-18T08:12:12.912Z,99.99
2022-10-18T08:14:43.696Z,99.99
2022-10-18T08:17:13.748Z,99.99
2022-10-18T08:19:52.836Z,99.99
2022-10-18T08:22:33.742Z,99.99
2022-10-18T08:25:03.860Z,99.99
2022-10-18T08:27:34.293Z,99.99
2022-10-18T08:30:04.714Z,99.99
2022-10-18T08:32:34.840Z,99.99
2022-10-18T08:35:06.970Z,99.99
2022-10-18T08:37:39.532Z,99.99
2022-10-18T08:40:12.048Z,99.99
2022-10-18T08:42:59.802Z,99.99
2022-10-18T08:45:42.063Z,99.99
2022-10-18T08:48:25.468Z,99.99
2022-10-18T08:50:58.899Z,99.99
2022-10-18T08:53:34.046Z,99.99
2022-10-18T08:56:22.762Z,99.99
2022-10-18T08:58:53.259Z,99.99
2022-10-18T09:01:37.789Z,99.99
2022-10-18T09:04:25.093Z,99.99
2022-10-18T09:07:07.196Z,99.99
2022-10-18T09:10:01.436Z,99.99
2022-10-18T09:12:34.529Z,99.99
2022-10-18T09:15:07.655Z,99.99
2022-10-18T09:18:07.127Z,99.99
2022-10-18T09:20:58.915Z,99.99
2022-10-18T09:23:50.578Z,99.99
2022-10-18T09:26:25.803Z,99.99
2022-10-18T09:29:14.855Z,99.99
2022-10-18T09:31:56.706Z,99.99
2022-10-18T09:34:32.024Z,99.99
2022-10-18T09:37:02.916Z,99.99
2022-10-18T09:39:38.222Z,99.99
2022-10-18T09:42:27.827Z,99.99
2022-10-18T09:45:04.236Z,99.99
2022-10-18T09:47:47.551Z,99.99
2022-10-18T09:50:38.715Z,99.99
2022-10-18T09:53:25.316Z,99.99
2022-10-18T09:56:27.794Z,99.99
2022-10-18T09:58:58.299Z,99.99
2022-10-18T10:01:31.677Z,99.99
2022-10-18T10:04:01.679Z,99.99
2022-10-18T10:06:33.454Z,99.99
2022-10-18T10:09:28.410Z,99.99
2022-10-18T10:11:59.864Z,99.99
2022-10-18T10:14:31.956Z,99.99
2022-10-18T10:17:05.842Z,99.99
2022-10-18T10:19:58.491Z,99.99
2022-10-18T10:22:40.413Z,99.99
2022-10-18T10:25:32.640Z,99.99
2022-10-18T10:28:09.204Z,99.99
2022-10-18T10:30:40.359Z,99.99
2022-10-18T10:33:38.380Z,99.99
2022-10-18T10:36:22.589Z,99.99
2022-10-18T10:39:12.384Z,99.99
2022-10-18T10:41:43.416Z,99.99
2022-10-18T10:44:23.079Z,99.99
2022-10-18T10:46:53.764Z,99.99
2022-10-18T10:49:46.023Z,99.99
2022-10-18T10:52:28.975Z,99.99
2022-10-18T10:55:23.227Z,99.99
2022-10-18T10:57:54.298Z,99.99
2022-10-18T11:00:43.069Z,99.99
2022-10-18T11:03:30.333Z,99.99
2022-10-18T11:06:02.268Z,99.99
2022-10-18T11:08:41.869Z,99.99
2022-10-18T11:11:33.112Z,99.99
2022-10-18T11:14:27.335Z,99.99
2022-10-18T11:17:19.080Z,99.99
2022-10-18T11:20:12.358Z,99.99
2022-10-18T11:23:04.880Z,99.99
2022-10-18T11:25:58.896Z,99.99
2022-10-18T11:28:38.265Z,99.99
2022-10-18T11:31:26.227Z,99.99
2022-10-18T11:34:35.467Z,99.99
2022-10-18T11:37:34.651Z,99.99
2022-10-18T11:40:31.862Z,99.99
2022-10-18T11:43:24.766Z,99.99
2022-10-18T11:46:12.867Z,99.99
2022-10-18T11:48:51.169Z,99.99
2022-10-18T11:52:03.157Z,99.99
2022-10-18T11:54:59.776Z,99.99
2022-10-18T11:57:48.135Z,99.99
2022-10-18T12:00:35.256Z,99.99
2022-10-18T12:03:26.167Z,99.99
2022-10-18T12:05:59.383Z,99.99
2022-10-18T12:08:33.933Z,99.99
2022-10-18T12:11:11.927Z,99.99
2022-10-18T12:14:09.041Z,99.99
2022-10-18T12:17:19.044Z,99.99
2022-10-18T12:19:34.609Z,99.99
2022-10-18T12:22:25.028Z,99.99
2022-10-18T12:24:56.034Z,99.99
2022-10-18T12:27:47.336Z,99.99
2022-10-18T12:30:34.682Z,99.99
2022-10-18T12:33:27.880Z,99.99
2022-10-18T12:36:27.205Z,99.99
2022-10-18T12:39:01.495Z,99.99
2022-10-18T12:41:37.531Z,99.99
2022-10-18T12:44:21.390Z,99.99
2022-10-18T12:46:57.815Z,99.99
2022-10-18T12:49:41.460Z,99.99
2022-10-18T12:52:26.144Z,99.99
2022-10-18T12:55:28.141Z,99.99
2022-10-18T12:58:01.488Z,99.99
2022-10-18T13:00:34.284Z,99.99
2022-10-18T13:03:21.642Z,99.99
2022-10-18T13:05:55.985Z,99.99
2022-10-18T13:08:32.736Z,99.99
2022-10-18T13:11:11.382Z,99.99
2022-10-18T13:13:51.739Z,99.99
2022-10-18T13:16:25.989Z,99.99
2022-10-18T13:19:16.985Z,99.99
2022-10-18T13:21:58.388Z,99.99
2022-10-18T13:24:34.876Z,99.99
2022-10-18T13:27:40.082Z,99.99
2022-10-18T13:30:29.224Z,99.99
2022-10-18T13:33:16.731Z,99.99
2022-10-18T13:36:05.190Z,99.99
2022-10-18T13:39:09.963Z,99.99
2022-10-18T13:41:50.758Z,99.99
2022-10-18T13:44:42.903Z,99.99
2022-10-18T13:47:16.125Z,99.99
2022-10-18T13:50:02.282Z,99.99
2022-10-18T13:53:17.413Z,99.99
2022-10-18T13:55:56.022Z,99.99
2022-10-18T13:58:33.006Z,99.99
2022-10-18T14:01:32.054Z,99.99
2022-10-18T14:07:09.709Z,99.04
2022-10-18T14:09:54.918Z,99.62
2022-10-18T14:12:46.574Z,99.23
2022-10-18T14:15:27.044Z,98.88
2022-10-18T14:18:10.009Z,96.94
2022-10-18T14:21:01.513Z,94.61
2022-10-18T14:23:44.516Z,95.16
2022-10-18T14:26:20.797Z,92.72
2022-10-18T14:29:21.031Z,94.77
2022-10-18T14:31:55.457Z,94.50
2022-10-18T14:34:25.792Z,92.76
2022-10-18T14:36:55.967Z,91.44
2022-10-18T14:39:33.866Z,90.01
2022-10-18T14:42:04.542Z,91.64
2022-10-18T14:44:35.952Z,91.73
2022-10-18T14:47:19.893Z,90.39
2022-10-18T14:49:51.197Z,91.27
2022-10-18T14:52:30.508Z,91.55
2022-10-18T14:55:04.275Z,91.62
2022-10-18T14:57:37.842Z,91.58
2022-10-18T15:00:11.070Z,92.33
2022-10-18T15:02:41.764Z,93.27
2022-10-18T15:05:20.638Z,94.52
2022-10-18T15:07:53.218Z,94.90
2022-10-18T15:10:37.630Z,94.27
2022-10-18T15:13:10.570Z,93.92
2022-10-18T15:15:42.394Z,93.94
2022-10-18T15:18:25.158Z,94.43
2022-10-18T15:21:26.680Z,95.00
2022-10-18T15:24:17.168Z,94.57
2022-10-18T15:26:48.835Z,94.90
2022-10-18T15:29:25.109Z,93.89
2022-10-18T15:31:55.604Z,93.20
2022-10-18T15:34:28.412Z,94.67
2022-10-18T15:36:59.010Z,93.92
2022-10-18T15:39:32.383Z,93.51
2022-10-18T15:42:04.197Z,92.65
2022-10-18T15:44:47.386Z,91.46
2022-10-18T15:47:24.665Z,91.65
2022-10-18T15:49:59.650Z,91.47
2022-10-18T15:52:45.637Z,91.17
2022-10-18T15:55:31.419Z,89.44
2022-10-18T15:58:19.610Z,87.85
2022-10-18T16:00:51.373Z,86.45
2022-10-18T16:03:25.813Z,86.40
2022-10-18T16:06:51.355Z,88.59
2022-10-18T16:09:24.281Z,90.26
2022-10-18T16:11:57.238Z,91.86
2022-10-18T16:14:35.552Z,93.27
2022-10-18T16:17:08.347Z,92.81
2022-10-18T16:19:38.293Z,93.63
2022-10-18T16:22:16.012Z,91.07
2022-10-18T16:24:46.195Z,90.01
2022-10-18T16:27:16.022Z,90.18
2022-10-18T16:29:46.065Z,89.12
2022-10-18T16:32:15.835Z,90.43
2022-10-18T16:34:45.646Z,89.61
2022-10-18T16:37:15.854Z,90.74
2022-10-18T16:39:46.045Z,91.17
2022-10-18T16:42:15.834Z,91.61
2022-10-18T16:44:46.535Z,91.11
2022-10-18T16:47:16.439Z,90.25
2022-10-18T16:49:48.109Z,90.87
2022-10-18T16:52:18.423Z,90.49
2022-10-18T16:54:48.295Z,90.06
2022-10-18T16:57:18.151Z,89.45
2022-10-18T16:59:48.236Z,90.12
2022-10-18T17:02:18.057Z,91.13
2022-10-18T17:04:48.153Z,91.29
2022-10-18T17:07:25.793Z,90.31
2022-10-18T17:09:55.758Z,90.04
2022-10-18T17:12:25.959Z,88.75
2022-10-18T17:14:55.761Z,88.87
2022-10-18T17:17:26.288Z,89.08
2022-10-18T17:19:56.943Z,90.27
2022-10-18T17:22:27.951Z,90.95
2022-10-18T17:24:58.354Z,91.11
2022-10-18T17:27:28.649Z,91.81
2022-10-18T17:29:58.784Z,90.83
2022-10-18T17:32:28.773Z,90.63
2022-10-18T17:34:58.624Z,90.52
2022-10-18T17:37:28.824Z,91.87
2022-10-18T17:39:58.611Z,93.09
2022-10-18T17:42:29.381Z,93.82
2022-10-18T17:44:59.302Z,94.71
2022-10-18T17:47:29.204Z,95.01
2022-10-18T17:49:59.017Z,95.37
2022-10-18T17:52:28.907Z,94.57
2022-10-18T17:54:58.700Z,94.27
2022-10-18T17:57:28.981Z,94.04
2022-10-18T18:00:01.037Z,95.04
2022-10-18T18:02:33.728Z,93.73
2022-10-18T18:05:06.259Z,95.15
2022-10-18T18:07:36.492Z,94.83
2022-10-18T18:10:06.521Z,94.54
2022-10-18T18:12:36.714Z,94.77
2022-10-18T18:15:07.495Z,95.53
2022-10-18T18:17:56.004Z,95.91
2022-10-18T18:20:28.093Z,95.68
2022-10-18T18:22:58.959Z,95.36
2022-10-18T18:25:29.811Z,95.66
2022-10-18T18:28:03.872Z,95.49
2022-10-18T18:30:42.172Z,96.08
2022-10-18T18:33:12.497Z,96.65
2022-10-18T18:35:42.683Z,96.49
2022-10-18T18:38:12.468Z,97.18
2022-10-18T18:40:42.272Z,96.34
2022-10-18T18:43:22.804Z,95.06
2022-10-18T18:45:54.043Z,95.23
2022-10-18T18:48:24.656Z,95.55
2022-10-18T18:50:54.490Z,95.68
2022-10-18T18:53:28.527Z,96.00
2022-10-18T18:56:08.824Z,96.07
2022-10-18T18:58:40.965Z,96.51
2022-10-18T19:01:21.071Z,95.11
2022-10-18T19:03:53.122Z,95.56
2022-10-18T19:06:32.469Z,96.04
2022-10-18T19:09:05.603Z,96.57
2022-10-18T19:11:39.922Z,96.31
2022-10-18T19:14:10.327Z,98.59
2022-10-18T19:16:41.606Z,99.46
2022-10-18T19:19:26.188Z,99.46
2022-10-18T19:22:03.147Z,99.99
2022-10-18T19:24:33.354Z,99.73
2022-10-18T19:27:06.233Z,99.99
2022-10-18T19:29:38.717Z,99.99
2022-10-18T19:32:13.244Z,99.99
2022-10-18T19:34:43.458Z,99.63
2022-10-18T19:37:14.391Z,99.99
2022-10-18T19:39:44.927Z,99.99
2022-10-18T19:42:22.722Z,99.99
2022-10-18T19:44:56.146Z,99.86
2022-10-18T19:47:25.961Z,99.99
2022-10-18T19:49:56.558Z,99.99
2022-10-18T19:52:26.777Z,99.99
2022-10-18T19:54:56.544Z,99.99
2022-10-18T19:57:26.368Z,99.99
2022-10-18T19:59:56.812Z,99.99
2022-10-18T20:02:27.788Z,99.99
2022-10-18T20:04:57.984Z,99.99
2022-10-18T20:07:27.724Z,99.99
2022-10-18T20:09:57.663Z,99.99
2022-10-18T20:12:27.413Z,99.99
2022-10-18T20:14:57.166Z,99.99
2022-10-18T20:17:27.497Z,99.99
2022-10-18T20:19:57.272Z,99.99
2022-10-18T20:22:27.176Z,99.99
2022-10-18T20:24:59.230Z,99.99
2022-10-18T20:27:33.201Z,99.99
2022-10-18T20:30:07.588Z,99.99
2022-10-18T20:32:40.778Z,99.99
2022-10-18T20:35:11.344Z,99.99
2022-10-18T20:37:41.606Z,99.99
2022-10-18T20:40:12.252Z,99.99
2022-10-18T20:42:42.536Z,99.99
2022-10-18T20:45:13.902Z,99.99
2022-10-18T20:47:44.346Z,99.99
2022-10-18T20:50:14.182Z,99.99
2022-10-18T20:52:45.126Z,99.99
2022-10-18T20:55:15.376Z,99.99
2022-10-18T20:57:45.455Z,99.99
2022-10-18T21:00:16.079Z,99.99
2022-10-18T21:02:46.412Z,99.99
2022-10-18T21:05:17.716Z,99.99
2022-10-18T21:07:48.002Z,99.99
2022-10-18T21:10:18.336Z,99.99
2022-10-18T21:12:51.257Z,99.99
2022-10-18T21:15:21.940Z,99.99
2022-10-18T21:17:53.319Z,99.99
2022-10-18T21:20:23.818Z,99.99
2022-10-18T21:22:55.152Z,99.99
2022-10-18T21:25:25.452Z,99.99
2022-10-18T21:27:56.210Z,99.99
2022-10-18T21:30:29.226Z,99.99
2022-10-18T21:33:19.408Z,99.99
2022-10-18T21:35:49.507Z,99.99
2022-10-18T21:38:19.299Z,99.99
2022-10-18T21:40:49.114Z,99.99
2022-10-18T21:43:20.052Z,99.99
2022-10-18T21:45:50.030Z,99.99
2022-10-18T21:48:20.282Z,99.99
2022-10-18T21:50:50.014Z,99.99
2022-10-18T21:53:19.826Z,99.99
2022-10-18T21:55:50.238Z,99.99
2022-10-18T21:58:20.565Z,99.99
2022-10-18T22:00:50.738Z,99.99
2022-10-18T22:03:21.533Z,99.99
2022-10-18T22:06:03.028Z,99.99
2022-10-18T22:08:33.628Z,99.99
2022-10-18T22:11:04.574Z,99.99
2022-10-18T22:13:35.084Z,99.99
2022-10-18T22:16:07.233Z,99.99
2022-10-18T22:18:37.807Z,99.99
2022-10-18T22:21:10.156Z,99.99
2022-10-18T22:23:45.528Z,99.99
2022-10-18T22:26:19.206Z,99.99
2022-10-18T22:28:55.065Z,99.99
2022-10-18T22:31:28.148Z,99.99
2022-10-18T22:34:00.876Z,99.99
2022-10-18T22:36:31.647Z,99.99
2022-10-18T22:39:01.873Z,99.99
2022-10-18T22:41:32.001Z,99.99
2022-10-18T22:44:03.637Z,99.99
2022-10-18T22:46:34.707Z,99.99
2022-10-18T22:49:04.456Z,99.99
2022-10-18T22:54:11.550Z,99.99
2022-10-18T22:56:41.890Z,99.99
2022-10-18T22:59:12.316Z,99.99
2022-10-18T23:01:42.475Z,99.99
2022-10-18T23:04:12.979Z,99.99
2022-10-18T23:06:43.464Z,99.99
2022-10-18T23:09:13.654Z,99.99
2022-10-18T23:11:43.442Z,99.99
2022-10-18T23:14:13.255Z,99.99
2022-10-18T23:16:43.498Z,99.99
2022-10-18T23:19:16.995Z,99.99
2022-10-18T23:21:47.402Z,99.99
2022-10-18T23:24:17.219Z,99.99
2022-10-18T23:26:47.065Z,99.99
2022-10-18T23:29:17.361Z,99.99
2022-10-18T23:31:47.519Z,99.99
2022-10-18T23:34:18.008Z,99.99
2022-10-18T23:36:48.000Z,99.99
2022-10-18T23:39:17.861Z,99.99
2022-10-18T23:41:47.637Z,99.99
2022-10-18T23:44:17.774Z,99.99
2022-10-18T23:46:47.555Z,99.99
2022-10-18T23:49:17.875Z,99.99
2022-10-18T23:51:47.793Z,99.99
2022-10-18T23:54:17.854Z,99.99
2022-10-18T23:56:47.846Z,99.99
2022-10-18T23:59:18.777Z,99.99
